createdAt,value
2023-05-01T00:01:33.052Z,6.74
2023-05-01T00:03:59.887Z,6.74
2023-05-01T00:06:28.095Z,6.71
2023-05-01T00:08:54.855Z,6.60
2023-05-01T00:11:21.513Z,6.60
2023-05-01T00:13:48.226Z,6.61
2023-05-01T00:16:16.900Z,6.62
2023-05-01T00:18:44.044Z,6.61
2023-05-01T00:21:10.697Z,6.60
2023-05-01T00:23:37.420Z,6.52
2023-05-01T00:26:04.230Z,6.46
2023-05-01T00:28:30.920Z,6.44
2023-05-01T00:30:57.864Z,6.48
2023-05-01T00:33:24.534Z,6.43
2023-05-01T00:35:52.808Z,6.33
2023-05-01T00:38:19.478Z,6.32
2023-05-01T00:40:46.853Z,6.36
2023-05-01T00:43:13.839Z,6.30
2023-05-01T00:45:45.399Z,6.33
2023-05-01T00:48:12.155Z,6.34
2023-05-01T00:50:39.395Z,6.40
2023-05-01T00:53:06.591Z,6.27
2023-05-01T00:55:33.853Z,6.19
2023-05-01T00:58:01.869Z,6.13
2023-05-01T01:00:29.625Z,6.11
2023-05-01T01:02:56.573Z,6.20
2023-05-01T01:05:28.309Z,6.19
2023-05-01T01:08:11.129Z,6.14
2023-05-01T01:10:53.457Z,6.07
2023-05-01T01:13:32.432Z,6.09
2023-05-01T01:16:19.099Z,6.22
2023-05-01T01:18:56.510Z,6.18
2023-05-01T01:21:32.340Z,6.04
2023-05-01T01:24:11.166Z,5.95
2023-05-01T01:27:02.658Z,5.97
2023-05-01T01:30:12.170Z,5.94
2023-05-01T01:32:56.485Z,5.97
2023-05-01T01:35:27.659Z,5.88
2023-05-01T01:38:03.521Z,5.79
2023-05-01T01:40:38.262Z,5.80
2023-05-01T01:43:10.637Z,5.98
2023-05-01T01:45:42.223Z,5.92
2023-05-01T01:48:14.365Z,5.98
2023-05-01T01:50:42.394Z,5.91
2023-05-01T01:53:11.764Z,5.86
2023-05-01T01:55:41.368Z,5.81
2023-05-01T01:58:10.684Z,5.83
2023-05-01T02:00:39.268Z,5.83
2023-05-01T02:03:06.626Z,5.80
2023-05-01T02:05:36.369Z,5.74
2023-05-01T02:08:05.457Z,5.68
2023-05-01T02:10:33.912Z,5.76
2023-05-01T02:13:03.238Z,5.64
2023-05-01T02:15:31.410Z,5.64
2023-05-01T02:17:59.606Z,5.60
2023-05-01T02:20:26.923Z,5.64
2023-05-01T02:22:54.193Z,5.51
2023-05-01T02:25:21.284Z,5.52
2023-05-01T02:27:55.719Z,5.53
2023-05-01T02:30:22.484Z,5.51
2023-05-01T02:32:49.293Z,5.47
2023-05-01T02:35:17.112Z,5.47
2023-05-01T02:37:44.964Z,5.51
2023-05-01T02:40:15.101Z,5.42
2023-05-01T02:42:48.077Z,5.34
2023-05-01T02:45:20.882Z,5.40
2023-05-01T02:47:51.877Z,5.39
2023-05-01T02:50:19.701Z,5.31
2023-05-01T02:52:47.304Z,5.39
2023-05-01T02:55:50.637Z,5.43
2023-05-01T02:58:21.034Z,5.43
2023-05-01T03:00:51.036Z,5.31
2023-05-01T03:03:19.338Z,5.25
2023-05-01T03:05:46.073Z,5.30
2023-05-01T03:08:12.830Z,5.35
2023-05-01T03:10:42.641Z,5.30
2023-05-01T03:13:10.885Z,5.22
2023-05-01T03:15:38.456Z,5.22
2023-05-01T03:18:05.389Z,5.27
2023-05-01T03:20:32.263Z,5.21
2023-05-01T03:22:59.379Z,5.24
2023-05-01T03:25:26.341Z,5.34
2023-05-01T03:27:54.936Z,5.39
2023-05-01T03:30:22.716Z,5.33
2023-05-01T03:32:51.735Z,5.41
2023-05-01T03:35:24.769Z,5.50
2023-05-01T03:37:51.814Z,5.65
2023-05-01T03:40:41.013Z,5.68
2023-05-01T03:43:26.175Z,5.88
2023-05-01T03:45:54.539Z,5.97
2023-05-01T03:48:21.517Z,6.03
2023-05-01T03:50:48.168Z,6.04
2023-05-01T03:53:16.523Z,6.20
2023-05-01T03:55:44.020Z,6.30
2023-05-01T03:58:12.763Z,6.28
2023-05-01T04:00:39.579Z,6.25
2023-05-01T04:03:06.507Z,6.29
2023-05-01T04:05:36.094Z,6.31
2023-05-01T04:08:04.417Z,6.41
2023-05-01T04:10:31.137Z,6.37
2023-05-01T04:13:02.693Z,6.41
2023-05-01T04:15:29.366Z,6.54
2023-05-01T04:17:56.935Z,6.63
2023-05-01T04:20:24.132Z,6.75
2023-05-01T04:22:50.846Z,6.82
2023-05-01T04:25:17.818Z,6.85
2023-05-01T04:27:47.206Z,6.92
2023-05-01T04:30:15.128Z,7.05
2023-05-01T04:32:41.828Z,7.12
2023-05-01T04:35:09.605Z,7.21
2023-05-01T04:37:37.559Z,7.36
2023-05-01T04:40:05.037Z,7.49
2023-05-01T04:42:32.325Z,7.52
2023-05-01T04:45:02.708Z,7.58
2023-05-01T04:47:32.626Z,7.65
2023-05-01T04:49:59.495Z,7.77
2023-05-01T04:52:26.625Z,7.80
2023-05-01T04:54:58.000Z,7.81
2023-05-01T04:57:27.108Z,7.91
2023-05-01T04:59:53.906Z,7.97
2023-05-01T05:02:20.884Z,8.10
2023-05-01T05:04:47.594Z,8.17
2023-05-01T05:07:14.246Z,8.20
2023-05-01T05:09:59.503Z,8.17
2023-05-01T05:12:26.391Z,8.19
2023-05-01T05:14:53.357Z,8.23
2023-05-01T05:17:20.116Z,8.32
2023-05-01T05:19:46.962Z,8.39
2023-05-01T05:22:13.634Z,8.49
2023-05-01T05:25:04.412Z,8.47
2023-05-01T05:27:36.396Z,8.52
2023-05-01T05:30:07.672Z,8.54
2023-05-01T05:32:35.685Z,8.58
2023-05-01T05:35:03.126Z,8.60
2023-05-01T05:37:30.162Z,8.61
2023-05-01T05:39:57.684Z,8.56
2023-05-01T05:42:25.006Z,8.43
2023-05-01T05:44:53.070Z,8.69
2023-05-01T05:47:20.219Z,8.81
2023-05-01T05:49:46.925Z,8.96
2023-05-01T05:52:13.711Z,9.11
2023-05-01T05:54:40.618Z,9.33
2023-05-01T05:57:07.342Z,9.44
2023-05-01T05:59:36.479Z,9.63
2023-05-01T06:02:03.725Z,9.86
2023-05-01T06:04:30.691Z,10.18
2023-05-01T06:06:57.928Z,10.45
2023-05-01T06:09:25.160Z,10.64
2023-05-01T06:11:51.946Z,10.92
2023-05-01T06:14:19.150Z,11.20
2023-05-01T06:16:46.367Z,11.31
2023-05-01T06:19:13.124Z,12.35
2023-05-01T06:21:41.240Z,12.98
2023-05-01T06:24:09.946Z,13.14
2023-05-01T06:26:45.482Z,13.84
2023-05-01T06:29:12.821Z,14.14
2023-05-01T06:31:39.600Z,14.51
2023-05-01T06:34:06.309Z,14.73
2023-05-01T06:36:53.085Z,14.71
2023-05-01T06:39:19.876Z,14.85
2023-05-01T06:41:47.625Z,15.07
2023-05-01T06:44:15.748Z,14.75
2023-05-01T06:46:42.707Z,14.92
2023-05-01T06:49:09.433Z,15.25
2023-05-01T06:51:36.756Z,15.80
2023-05-01T06:54:03.718Z,16.21
2023-05-01T06:56:32.298Z,15.96
2023-05-01T06:58:58.975Z,15.95
2023-05-01T07:01:25.979Z,16.08
2023-05-01T07:03:52.737Z,16.40
2023-05-01T07:06:19.479Z,16.00
2023-05-01T07:08:46.193Z,16.12
2023-05-01T07:11:12.917Z,16.86
2023-05-01T07:13:39.704Z,17.26
2023-05-01T07:16:07.177Z,17.65
2023-05-01T07:18:34.780Z,17.98
2023-05-01T07:21:01.553Z,19.13
2023-05-01T07:23:28.315Z,19.81
2023-05-01T07:25:57.988Z,19.47
2023-05-01T07:28:25.781Z,19.65
2023-05-01T07:30:52.581Z,20.04
2023-05-01T07:33:19.310Z,20.07
2023-05-01T07:35:46.453Z,20.31
2023-05-01T07:38:14.082Z,19.98
2023-05-01T07:40:41.027Z,21.13
2023-05-01T07:43:11.218Z,21.19
2023-05-01T07:45:38.969Z,21.80
2023-05-01T07:48:06.517Z,21.08
2023-05-01T07:50:33.338Z,21.55
2023-05-01T07:53:00.185Z,21.30
2023-05-01T07:55:26.909Z,21.15
2023-05-01T07:57:53.581Z,21.01
2023-05-01T08:00:20.907Z,20.73
2023-05-01T08:02:48.382Z,19.70
2023-05-01T08:05:15.168Z,19.74
2023-05-01T08:07:41.853Z,19.65
2023-05-01T08:10:08.880Z,19.42
2023-05-01T08:12:35.609Z,19.17
2023-05-01T08:15:02.347Z,19.64
2023-05-01T08:17:29.095Z,20.19
2023-05-01T08:19:56.867Z,20.18
2023-05-01T08:22:24.045Z,19.70
2023-05-01T08:24:51.516Z,20.50
2023-05-01T08:27:19.165Z,21.25
2023-05-01T08:29:45.977Z,22.14
2023-05-01T08:32:12.701Z,23.09
2023-05-01T08:34:39.387Z,23.61
2023-05-01T08:37:06.172Z,24.04
2023-05-01T08:39:32.849Z,23.63
2023-05-01T08:41:59.812Z,24.06
2023-05-01T08:44:26.861Z,24.25
2023-05-01T08:47:08.294Z,24.54
2023-05-01T08:49:37.738Z,25.03
2023-05-01T08:52:06.657Z,26.07
2023-05-01T08:54:34.655Z,26.11
2023-05-01T08:57:03.739Z,25.65
2023-05-01T08:59:35.150Z,25.85
2023-05-01T09:02:05.829Z,26.03
2023-05-01T09:04:35.482Z,24.56
2023-05-01T09:07:02.213Z,24.96
2023-05-01T09:09:30.217Z,25.51
2023-05-01T09:12:05.189Z,24.73
2023-05-01T09:14:33.090Z,23.97
2023-05-01T09:16:59.909Z,23.97
2023-05-01T09:19:27.225Z,23.06
2023-05-01T09:21:55.242Z,22.13
2023-05-01T09:24:25.642Z,22.11
2023-05-01T09:26:52.593Z,21.53
2023-05-01T09:29:37.802Z,22.22
2023-05-01T09:32:28.354Z,22.01
2023-05-01T09:35:09.410Z,22.30
2023-05-01T09:37:36.144Z,21.80
2023-05-01T09:40:10.646Z,22.70
2023-05-01T09:42:54.954Z,21.74
2023-05-01T09:45:23.510Z,21.30
2023-05-01T09:47:50.444Z,21.33
2023-05-01T09:50:29.659Z,22.50
2023-05-01T09:52:56.357Z,23.51
2023-05-01T09:55:25.555Z,23.86
2023-05-01T09:57:53.010Z,24.91
2023-05-01T10:00:22.250Z,25.71
2023-05-01T10:02:50.187Z,26.76
2023-05-01T10:05:18.439Z,26.69
2023-05-01T10:07:59.373Z,27.34
2023-05-01T10:10:26.303Z,26.85
2023-05-01T10:12:53.153Z,25.22
2023-05-01T10:15:26.110Z,25.60
2023-05-01T10:17:54.755Z,24.97
2023-05-01T10:20:22.159Z,24.86
2023-05-01T10:22:49.190Z,25.35
2023-05-01T10:25:18.204Z,24.14
2023-05-01T10:27:45.214Z,24.57
2023-05-01T10:30:12.775Z,25.32
2023-05-01T10:32:41.885Z,25.09
2023-05-01T10:35:19.648Z,25.67
2023-05-01T10:37:58.565Z,23.49
2023-05-01T10:40:43.549Z,23.40
2023-05-01T10:43:28.608Z,22.74
2023-05-01T10:46:21.052Z,23.64
2023-05-01T10:48:47.773Z,23.49
2023-05-01T10:51:15.597Z,22.91
2023-05-01T10:53:43.308Z,23.30
2023-05-01T10:56:32.949Z,23.58
2023-05-01T10:59:04.504Z,23.01
2023-05-01T11:01:40.032Z,23.54
2023-05-01T11:04:22.001Z,23.20
2023-05-01T11:07:10.901Z,22.77
2023-05-01T11:09:43.000Z,22.68
2023-05-01T11:12:11.729Z,22.38
2023-05-01T11:15:07.828Z,21.76
2023-05-01T11:17:43.960Z,21.21
2023-05-01T11:20:13.156Z,22.00
2023-05-01T11:22:47.268Z,21.81
2023-05-01T11:25:28.065Z,21.16
2023-05-01T11:27:56.326Z,20.92
2023-05-01T11:30:23.129Z,20.61
2023-05-01T11:32:51.200Z,21.31
2023-05-01T11:35:23.492Z,22.43
2023-05-01T11:37:56.898Z,23.71
2023-05-01T11:40:25.168Z,23.73
2023-05-01T11:43:01.469Z,23.93
2023-05-01T11:45:28.551Z,24.57
2023-05-01T11:47:55.403Z,26.16
2023-05-01T11:50:22.275Z,26.11
2023-05-01T11:52:54.470Z,26.54
2023-05-01T11:55:21.613Z,26.21
2023-05-01T11:57:53.261Z,25.48
2023-05-01T12:00:31.685Z,25.61
2023-05-01T12:03:03.830Z,26.05
2023-05-01T12:05:35.480Z,26.49
2023-05-01T12:08:18.817Z,26.01
2023-05-01T12:10:56.240Z,25.48
2023-05-01T12:13:24.674Z,25.54
2023-05-01T12:15:53.794Z,23.05
2023-05-01T12:18:23.943Z,24.94
2023-05-01T12:20:53.080Z,25.93
2023-05-01T12:23:30.484Z,25.18
2023-05-01T12:25:57.513Z,23.91
2023-05-01T12:28:25.117Z,22.58
2023-05-01T12:30:52.088Z,22.10
2023-05-01T12:33:20.688Z,21.37
2023-05-01T12:35:49.309Z,20.82
2023-05-01T12:38:16.267Z,20.23
2023-05-01T12:40:57.700Z,20.45
2023-05-01T12:43:33.419Z,20.10
2023-05-01T12:46:02.142Z,19.71
2023-05-01T12:48:30.595Z,19.62
2023-05-01T12:50:58.423Z,19.26
2023-05-01T12:53:27.690Z,19.26
2023-05-01T12:55:58.889Z,19.17
2023-05-01T12:58:37.061Z,18.97
2023-05-01T13:01:04.428Z,19.12
2023-05-01T13:03:33.791Z,19.39
2023-05-01T13:06:03.251Z,19.82
2023-05-01T13:08:31.802Z,20.02
2023-05-01T13:11:09.616Z,20.36
2023-05-01T13:13:37.570Z,20.38
2023-05-01T13:16:12.830Z,20.85
2023-05-01T13:18:52.084Z,20.78
2023-05-01T13:21:21.650Z,20.71
2023-05-01T13:23:59.903Z,20.68
2023-05-01T13:26:29.066Z,20.24
2023-05-01T13:28:55.785Z,20.14
2023-05-01T13:31:22.676Z,20.39
2023-05-01T13:33:54.108Z,19.97
2023-05-01T13:36:26.817Z,20.48
2023-05-01T13:38:57.044Z,21.55
2023-05-01T13:41:25.959Z,21.99
2023-05-01T13:43:54.787Z,22.64
2023-05-01T13:46:23.360Z,22.87
2023-05-01T13:48:50.625Z,22.72
2023-05-01T13:51:22.568Z,22.92
2023-05-01T13:53:49.621Z,23.48
2023-05-01T13:56:17.829Z,24.45
2023-05-01T13:58:44.864Z,24.47
2023-05-01T14:01:15.938Z,24.12
2023-05-01T14:03:43.462Z,23.79
2023-05-01T14:06:17.916Z,22.78
2023-05-01T14:08:46.991Z,23.22
2023-05-01T14:11:14.504Z,23.13
2023-05-01T14:13:42.797Z,22.58
2023-05-01T14:16:11.937Z,23.26
2023-05-01T14:18:46.000Z,23.45
2023-05-01T14:21:14.809Z,23.77
2023-05-01T14:23:44.497Z,23.44
2023-05-01T14:26:16.922Z,23.56
2023-05-01T14:28:46.196Z,22.94
2023-05-01T14:31:17.124Z,22.03
2023-05-01T14:33:44.138Z,21.12
2023-05-01T14:36:12.523Z,20.83
2023-05-01T14:38:40.466Z,19.90
2023-05-01T14:41:09.342Z,19.41
2023-05-01T14:43:41.500Z,19.04
2023-05-01T14:46:08.512Z,19.01
2023-05-01T14:48:36.932Z,19.00
2023-05-01T14:51:10.601Z,18.67
2023-05-01T14:53:40.151Z,18.58
2023-05-01T14:56:07.360Z,18.59
2023-05-01T14:58:34.018Z,18.72
2023-05-01T15:01:02.074Z,18.77
2023-05-01T15:03:29.464Z,18.81
2023-05-01T15:05:57.456Z,18.71
2023-05-01T15:08:24.502Z,18.70
2023-05-01T15:10:54.155Z,18.72
2023-05-01T15:13:21.292Z,18.65
2023-05-01T15:15:48.196Z,18.52
2023-05-01T15:18:15.078Z,18.64
2023-05-01T15:20:41.844Z,18.56
2023-05-01T15:23:08.673Z,18.64
2023-05-01T15:25:35.624Z,18.63
2023-05-01T15:28:03.521Z,18.75
2023-05-01T15:30:30.325Z,18.83
2023-05-01T15:32:57.304Z,18.62
2023-05-01T15:35:24.218Z,18.56
2023-05-01T15:37:51.319Z,18.71
2023-05-01T15:40:18.150Z,18.43
2023-05-01T15:42:45.588Z,18.42
2023-05-01T15:45:12.276Z,18.54
2023-05-01T15:47:38.932Z,18.51
2023-05-01T15:50:10.974Z,18.40
2023-05-01T15:52:38.329Z,18.47
2023-05-01T15:55:05.765Z,18.52
2023-05-01T15:57:34.624Z,18.30
2023-05-01T16:00:01.824Z,18.25
2023-05-01T16:02:32.743Z,18.16
2023-05-01T16:05:00.081Z,18.13
2023-05-01T16:07:29.141Z,17.99
2023-05-01T16:09:56.794Z,17.89
2023-05-01T16:12:23.854Z,17.94
2023-05-01T16:14:51.396Z,17.93
2023-05-01T16:17:20.128Z,17.80
2023-05-01T16:19:48.109Z,17.86
2023-05-01T16:22:15.531Z,17.80
2023-05-01T16:24:42.445Z,17.62
2023-05-01T16:27:13.380Z,17.65
2023-05-01T16:29:41.114Z,17.55
2023-05-01T16:32:11.391Z,17.46
2023-05-01T16:34:40.285Z,17.44
2023-05-01T16:37:07.562Z,17.43
2023-05-01T16:39:38.477Z,17.40
2023-05-01T16:42:05.221Z,17.30
2023-05-01T16:44:35.992Z,17.23
2023-05-01T16:47:03.655Z,17.12
2023-05-01T16:49:30.998Z,17.02
2023-05-01T16:51:58.840Z,16.96
2023-05-01T16:54:35.516Z,16.83
2023-05-01T16:57:03.578Z,16.80
2023-05-01T16:59:30.879Z,16.73
2023-05-01T17:01:57.688Z,16.61
2023-05-01T17:04:25.490Z,16.59
2023-05-01T17:06:52.503Z,16.42
2023-05-01T17:09:19.270Z,16.33
2023-05-01T17:11:56.951Z,16.31
2023-05-01T17:14:23.905Z,16.31
2023-05-01T17:16:51.866Z,16.27
2023-05-01T17:19:18.656Z,16.20
2023-05-01T17:21:46.070Z,16.02
2023-05-01T17:24:14.090Z,15.96
2023-05-01T17:26:40.936Z,15.83
2023-05-01T17:29:08.337Z,15.70
2023-05-01T17:31:35.978Z,15.62
2023-05-01T17:34:03.745Z,15.44
2023-05-01T17:36:30.565Z,15.31
2023-05-01T17:39:00.203Z,15.24
2023-05-01T17:41:28.274Z,15.11
2023-05-01T17:43:56.128Z,15.00
2023-05-01T17:46:23.928Z,15.00
2023-05-01T17:48:52.050Z,14.92
2023-05-01T17:51:23.085Z,14.81
2023-05-01T17:53:51.381Z,14.82
2023-05-01T17:56:19.656Z,14.75
2023-05-01T17:58:46.963Z,14.65
2023-05-01T18:01:17.077Z,14.61
2023-05-01T18:03:46.906Z,14.56
2023-05-01T18:06:14.469Z,14.51
2023-05-01T18:08:43.760Z,14.50
2023-05-01T18:11:12.375Z,14.40
2023-05-01T18:13:40.611Z,14.30
2023-05-01T18:16:12.936Z,14.18
2023-05-01T18:18:42.191Z,14.09
2023-05-01T18:21:10.272Z,14.00
2023-05-01T18:23:39.901Z,14.03
2023-05-01T18:26:06.972Z,13.95
2023-05-01T18:28:34.612Z,13.94
2023-05-01T18:31:04.862Z,13.88
2023-05-01T18:33:34.114Z,13.82
2023-05-01T18:36:06.027Z,13.84
2023-05-01T18:38:40.534Z,13.77
2023-05-01T18:41:13.066Z,13.76
2023-05-01T18:43:42.133Z,13.70
2023-05-01T18:46:13.890Z,13.71
2023-05-01T18:48:44.527Z,13.69
2023-05-01T18:51:17.634Z,13.75
2023-05-01T18:53:48.855Z,13.75
2023-05-01T18:56:16.881Z,13.80
2023-05-01T18:58:46.714Z,13.85
2023-05-01T19:01:18.499Z,13.79
2023-05-01T19:03:47.749Z,13.81
2023-05-01T19:06:15.397Z,13.83
2023-05-01T19:08:44.220Z,13.79
2023-05-01T19:11:12.461Z,13.77
2023-05-01T19:13:40.457Z,13.81
2023-05-01T19:16:08.199Z,13.85
2023-05-01T19:18:37.525Z,13.82
2023-05-01T19:21:05.440Z,13.86
2023-05-01T19:23:35.749Z,13.88
2023-05-01T19:26:06.140Z,13.86
2023-05-01T19:28:36.038Z,13.83
2023-05-01T19:31:05.655Z,13.79
2023-05-01T19:33:34.842Z,13.81
2023-05-01T19:36:02.502Z,13.74
2023-05-01T19:38:29.699Z,13.76
2023-05-01T19:40:56.880Z,13.73
2023-05-01T19:43:24.097Z,13.77
2023-05-01T19:45:53.853Z,13.76
2023-05-01T19:48:21.947Z,13.77
2023-05-01T19:50:51.785Z,13.76
2023-05-01T19:53:20.914Z,13.75
2023-05-01T19:55:49.587Z,13.75
2023-05-01T19:58:16.346Z,13.74
2023-05-01T20:00:43.017Z,13.76
2023-05-01T20:03:11.312Z,13.69
2023-05-01T20:05:39.532Z,13.65
2023-05-01T20:08:06.806Z,13.64
2023-05-01T20:10:33.525Z,13.63
2023-05-01T20:13:01.157Z,13.65
2023-05-01T20:15:28.266Z,13.66
2023-05-01T20:17:55.562Z,13.58
2023-05-01T20:20:22.281Z,13.52
2023-05-01T20:22:52.161Z,13.49
2023-05-01T20:25:18.934Z,13.44
2023-05-01T20:27:46.808Z,13.41
2023-05-01T20:30:13.666Z,13.35
2023-05-01T20:32:43.991Z,13.31
2023-05-01T20:35:11.678Z,13.30
2023-05-01T20:37:41.945Z,13.26
2023-05-01T20:40:11.728Z,13.23
2023-05-01T20:42:38.397Z,13.26
2023-05-01T20:45:06.509Z,13.30
2023-05-01T20:47:33.567Z,13.28
2023-05-01T20:50:00.851Z,13.24
2023-05-01T20:52:27.875Z,13.23
2023-05-01T20:54:54.743Z,13.23
2023-05-01T20:57:21.620Z,13.27
2023-05-01T20:59:50.367Z,13.17
2023-05-01T21:02:17.605Z,13.20
2023-05-01T21:04:46.336Z,13.18
2023-05-01T21:07:13.090Z,13.15
2023-05-01T21:09:48.381Z,13.18
2023-05-01T21:12:16.105Z,13.18
2023-05-01T21:14:43.933Z,13.17
2023-05-01T21:17:11.205Z,13.18
2023-05-01T21:19:46.586Z,13.13
2023-05-01T21:22:20.307Z,13.12
2023-05-01T21:24:55.986Z,13.17
2023-05-01T21:27:24.363Z,13.19
2023-05-01T21:29:58.983Z,13.12
2023-05-01T21:32:32.924Z,13.11
2023-05-01T21:35:00.718Z,13.04
2023-05-01T21:37:29.142Z,13.00
2023-05-01T21:39:59.554Z,12.85
2023-05-01T21:42:31.662Z,12.83
2023-05-01T21:44:59.569Z,12.85
2023-05-01T21:47:27.956Z,12.81
2023-05-01T21:49:58.421Z,12.84
2023-05-01T21:52:25.446Z,12.86
2023-05-01T21:54:52.361Z,12.82
2023-05-01T21:57:19.059Z,12.76
2023-05-01T21:59:47.716Z,12.72
2023-05-01T22:02:14.393Z,12.70
2023-05-01T22:04:41.190Z,12.64
2023-05-01T22:07:07.912Z,12.62
2023-05-01T22:09:34.605Z,12.54
2023-05-01T22:12:01.532Z,12.49
2023-05-01T22:14:36.607Z,12.47
2023-05-01T22:17:10.842Z,12.43
2023-05-01T22:19:37.946Z,12.34
2023-05-01T22:22:04.699Z,12.38
2023-05-01T22:24:31.683Z,12.38
2023-05-01T22:26:58.351Z,12.41
2023-05-01T22:29:25.039Z,12.37
2023-05-01T22:31:51.974Z,12.34
2023-05-01T22:34:18.851Z,12.29
2023-05-01T22:36:45.831Z,12.28
2023-05-01T22:39:12.499Z,12.20
2023-05-01T22:41:39.158Z,12.16
2023-05-01T22:44:06.428Z,12.18
2023-05-01T22:46:33.229Z,12.12
2023-05-01T22:49:03.191Z,12.17
2023-05-01T22:51:30.366Z,12.16
2023-05-01T22:53:57.836Z,12.19
2023-05-01T22:56:27.032Z,12.17
2023-05-01T22:58:55.262Z,12.08
2023-05-01T23:01:23.247Z,11.98
2023-05-01T23:03:50.836Z,12.06
2023-05-01T23:06:20.764Z,12.04
2023-05-01T23:08:51.095Z,12.01
2023-05-01T23:11:18.880Z,12.07
2023-05-01T23:13:47.970Z,12.05
2023-05-01T23:16:18.476Z,12.01
2023-05-01T23:18:45.715Z,12.01
2023-05-01T23:21:17.490Z,12.05
2023-05-01T23:23:45.483Z,12.04
2023-05-01T23:26:25.055Z,11.96
2023-05-01T23:28:52.988Z,11.98
2023-05-01T23:31:27.062Z,11.98
2023-05-01T23:33:54.882Z,11.88
2023-05-01T23:36:22.101Z,11.82
2023-05-01T23:38:48.864Z,11.80
2023-05-01T23:41:16.140Z,11.78
2023-05-01T23:43:43.755Z,11.81
2023-05-01T23:46:10.485Z,11.80
2023-05-01T23:48:39.956Z,11.78
2023-05-01T23:51:06.995Z,11.68
2023-05-01T23:53:33.790Z,11.69
2023-05-01T23:56:00.403Z,11.68
2023-05-01T23:58:27.125Z,11.64
